Allison Crosby — WDF2763 — position and weather

sailwx.info

Track history (hours):
 
Tides and Currents Weather Stations Pressure Air Temp Water Temp Dewpoint Dewpoint Depression Visibility Wind Speed Wind Dir Waves Ship Positions

Allison Crosby

Owner: Crosby Marine Transportation LLC, Golden Meadow, LA. More information available from US FCC via Universal Licensing System and Coast Guard Vessel Documentation Center.

Last reported at 2015-Apr-21 20:33 UTC. Time now 2015-Apr-21 21:02 UTC.
Position N 46°07' W 124°15'.

Length 21 m; draft 4.1 m.

Type: Tow > 200 m length. MMSI: 367431620.

Date/timePositionNaut miles runAvg speedWind from/ knotsBaromVisibWave heightAir tempDewpointWater temp
2015-Apr-21 20:33N 46°07' W 124°15'9 9.0
2015-Apr-21 19:33N 45°58' W 124°16'9 8.8
2015-Apr-21 18:34N 45°49' W 124°17'9 9.1
2015-Apr-21 17:34N 45°40' W 124°19'9 9.3
2015-Apr-21 16:33N 45°31' W 124°20'416 9.2
2015-Apr-19 19:12N 38°36' W 123°33'6 9.7
2015-Apr-19 18:33N 38°31' W 123°29'10 9.7
2015-Apr-19 17:34N 38°22' W 123°23'9 9.5
2015-Apr-19 16:34N 38°14' W 123°17'10 9.8
2015-Apr-19 15:33N 38°06' W 123°10'1010.2
2015-Apr-19 14:34N 37°57' W 123°04'1010.2
2015-Apr-19 13:33N 37°48' W 122°57'10 9.9
2015-Apr-19 12:33N 37°40' W 122°51'22 9.8
2015-Apr-19 10:19N 37°20' W 122°39'910.1
2015-Apr-19 09:26N 37°12' W 122°34'910.0
2015-Apr-19 08:33N 37°04' W 122°30'10 9.9
2015-Apr-19 07:34N 36°55' W 122°24'1010.2
2015-Apr-19 06:33N 36°46' W 122°18'10 9.8
2015-Apr-19 05:33N 36°37' W 122°13'1010.2
2015-Apr-19 04:33N 36°28' W 122°08'1010.2
2015-Apr-19 03:34N 36°19' W 122°02'1010.0
2015-Apr-19 02:33N 36°11' W 121°55'10 9.6
2015-Apr-19 01:33N 36°03' W 121°48'14 9.8
2015-Apr-19 00:10N 35°52' W 121°37'2810.2
2015-Apr-18 21:28N 35°31' W 121°16'2910.0
2015-Apr-18 18:33N 35°06' W 120°57'10 9.6
2015-Apr-18 17:34N 34°57' W 120°53'120 9.2
2015-Apr-18 04:29N 33°53' W 118°50'9 9.4
2015-Apr-18 03:33N 33°49' W 118°41'11 9.3
2015-Apr-18 02:24N 33°44' W 118°30'8 9.2
2015-Apr-18 01:34N 33°40' W 118°22'9 8.7
2015-Apr-18 00:34N 33°36' W 118°12'9 9.2
2015-Apr-17 23:33N 33°30' W 118°04'10 9.8
2015-Apr-17 22:34N 33°25' W 117°54'9 9.3
2015-Apr-17 21:34N 33°20' W 117°45'9 9.0
2015-Apr-17 20:34N 33°15' W 117°36'9 9.1
2015-Apr-17 19:34N 33°09' W 117°28'10 9.6
2015-Apr-17 18:34N 32°59' W 117°26'10 9.6
2015-Apr-17 17:34N 32°50' W 117°24'1010.1
2015-Apr-17 16:33N 32°40' W 117°22'1110.3
2015-Apr-17 15:31N 32°29' W 117°20'  
Track history (hours):
 
Tides and Currents Weather Stations Pressure Air Temp Water Temp Dewpoint Dewpoint Depression Visibility Wind Speed Wind Dir Waves Ship Positions

Allison Crosby

Owner: Crosby Marine Transportation LLC, Golden Meadow, LA. More information available from US FCC via Universal Licensing System and Coast Guard Vessel Documentation Center.

Last reported at 2015-Apr-21 20:33 UTC. Time now 2015-Apr-21 21:02 UTC.
Position N 46°07' W 124°15'.

Length 21 m; draft 4.1 m.

Type: Tow > 200 m length. MMSI: 367431620.

Date/timePositionNaut miles runAvg speedWind from/ knotsBaromVisibWave heightAir tempDewpointWater temp
2015-Apr-21 20:33N 46°07' W 124°15'9 9.0
2015-Apr-21 19:33N 45°58' W 124°16'9 8.8
2015-Apr-21 18:34N 45°49' W 124°17'9 9.1
2015-Apr-21 17:34N 45°40' W 124°19'9 9.3
2015-Apr-21 16:33N 45°31' W 124°20'416 9.2
2015-Apr-19 19:12N 38°36' W 123°33'6 9.7
2015-Apr-19 18:33N 38°31' W 123°29'10 9.7
2015-Apr-19 17:34N 38°22' W 123°23'9 9.5
2015-Apr-19 16:34N 38°14' W 123°17'10 9.8
2015-Apr-19 15:33N 38°06' W 123°10'1010.2
2015-Apr-19 14:34N 37°57' W 123°04'1010.2
2015-Apr-19 13:33N 37°48' W 122°57'10 9.9
2015-Apr-19 12:33N 37°40' W 122°51'22 9.8
2015-Apr-19 10:19N 37°20' W 122°39'910.1
2015-Apr-19 09:26N 37°12' W 122°34'910.0
2015-Apr-19 08:33N 37°04' W 122°30'10 9.9
2015-Apr-19 07:34N 36°55' W 122°24'1010.2
2015-Apr-19 06:33N 36°46' W 122°18'10 9.8
2015-Apr-19 05:33N 36°37' W 122°13'1010.2
2015-Apr-19 04:33N 36°28' W 122°08'1010.2
2015-Apr-19 03:34N 36°19' W 122°02'1010.0
2015-Apr-19 02:33N 36°11' W 121°55'10 9.6
2015-Apr-19 01:33N 36°03' W 121°48'14 9.8
2015-Apr-19 00:10N 35°52' W 121°37'2810.2
2015-Apr-18 21:28N 35°31' W 121°16'2910.0
2015-Apr-18 18:33N 35°06' W 120°57'10 9.6
2015-Apr-18 17:34N 34°57' W 120°53'120 9.2
2015-Apr-18 04:29N 33°53' W 118°50'9 9.4
2015-Apr-18 03:33N 33°49' W 118°41'11 9.3
2015-Apr-18 02:24N 33°44' W 118°30'8 9.2
2015-Apr-18 01:34N 33°40' W 118°22'9 8.7
2015-Apr-18 00:34N 33°36' W 118°12'9 9.2
2015-Apr-17 23:33N 33°30' W 118°04'10 9.8
2015-Apr-17 22:34N 33°25' W 117°54'9 9.3
2015-Apr-17 21:34N 33°20' W 117°45'9 9.0
2015-Apr-17 20:34N 33°15' W 117°36'9 9.1
2015-Apr-17 19:34N 33°09' W 117°28'10 9.6
2015-Apr-17 18:34N 32°59' W 117°26'10 9.6
2015-Apr-17 17:34N 32°50' W 117°24'1010.1
2015-Apr-17 16:33N 32°40' W 117°22'1110.3
2015-Apr-17 15:31N 32°29' W 117°20'  

Dump ship's entire track history